Time;durP1;ratioP1;P1;durP2;ratioP2;P2;SDS_P1;SDS_P2;PMS_P1;PMS_P2;Temp;Humidity;BMP_temperature;BMP_pressure;BME280_temperature;BME280_humidity;BME280_pressure;Samples;Min_cycle;Max_cycle;Signal;HPM_P1;HPM_P2
2022/10/06 00:01:03;;;;;;;;;;;;;;;;;;4990381;28;19922;-55
2022/10/06 00:03:29;;;;;;;;;;;;;;;;;;4991764;28;19933;-52
2022/10/06 00:05:55;;;;;;;;;;;;;;;;;;4991404;28;19914;-53
2022/10/06 00:08:21;;;;;;;;;;;;;;;;;;4999444;28;19937;-54
2022/10/06 00:10:46;;;;;;;;;;;;;;;;;;4991187;28;19925;-53
2022/10/06 00:13:12;;;;;;;;;;;;;;;;;;4999549;28;19952;-55
2022/10/06 00:15:37;;;;;;;;;;;;;;;;;;4991354;28;19936;-56
2022/10/06 00:18:03;;;;;;;;;;;;;;;;;;4991655;28;19920;-55
2022/10/06 00:20:28;;;;;;;;;;;;;;;;;;4990692;28;20368;-55
2022/10/06 00:22:55;;;;;;;;;;;;;;;;;;4991446;28;19922;-62
2022/10/06 00:25:21;;;;;;;;;;;;;;;;;;5000222;28;19917;-55
2022/10/06 00:27:47;;;;;;;;;;;;;;;;;;4995049;28;19918;-66
2022/10/06 00:30:12;;;;;;;;;;;;;;;;;;4993966;28;19918;-56
2022/10/06 00:32:38;;;;;;;;;;;;;;;;;;4995354;28;19928;-55
2022/10/06 00:35:03;;;;;;;;;;;;;;;;;;4996616;28;19996;-56
2022/10/06 00:37:29;;;;;;;;;;;;;;;;;;4994657;28;19925;-56
2022/10/06 00:39:54;;;;;;;;;;;;;;;;;;4994310;28;20291;-55
2022/10/06 00:42:20;;;;;;;;;;;;;;;;;;4994174;28;19933;-56
2022/10/06 00:44:46;;;;;;;;;;;;;;;;;;5002952;28;20306;-53
2022/10/06 00:47:12;;;;;;;;;;;;;;;;;;4994142;28;19924;-56
2022/10/06 00:49:38;;;;;;;;;;;;;;;;;;4994324;28;19957;-56
2022/10/06 00:52:04;;;;;;;;;;;;;;;;;;4994238;28;20470;-55
2022/10/06 00:54:29;;;;;;;;;;;;;;;;;;4994568;28;19918;-56
2022/10/06 00:56:55;;;;;;;;;;;;;;;;;;4993990;28;19914;-55
2022/10/06 00:59:20;;;;;;;;;;;;;;;;;;4994252;28;19918;-55
2022/10/06 01:01:46;;;;;;;;;;;;;;;;;;4993493;28;20368;-52
2022/10/06 01:04:12;;;;;;;;;;;;;;;;;;5002180;28;19924;-55
2022/10/06 01:06:40;;;;;;;;;;;;;;;;;;4993799;28;20526;-56
2022/10/06 01:09:06;;;;;;;;;;;;;;;;;;4994342;28;19918;-53
2022/10/06 01:11:33;;;;;;;;;;;;;;;;;;4993112;28;20283;-55
2022/10/06 01:13:59;;;;;;;;;;;;;;;;;;4994348;28;19917;-55
2022/10/06 01:16:25;;;;;;;;;;;;;;;;;;4993479;28;20291;-55
2022/10/06 01:18:51;;;;;;;;;;;;;;;;;;4994227;28;20369;-55
2022/10/06 01:21:16;;;;;;;;;;;;;;;;;;4993215;28;19918;-53
2022/10/06 01:23:42;;;;;;;;;;;;;;;;;;4994037;28;19929;-52
2022/10/06 01:26:08;;;;;;;;;;;;;;;;;;4993480;28;19925;-54
2022/10/06 01:28:33;;;;;;;;;;;;;;;;;;4993909;28;19924;-57
2022/10/06 01:31:00;;;;;;;;;;;;;;;;;;4993243;28;19922;-55
2022/10/06 01:33:26;;;;;;;;;;;;;;;;;;5010132;28;19941;-55
2022/10/06 01:35:51;;;;;;;;;;;;;;;;;;4987897;28;19918;-55
2022/10/06 01:38:17;;;;;;;;;;;;;;;;;;4989447;28;19921;-55
2022/10/06 01:40:42;;;;;;;;;;;;;;;;;;4993072;28;19924;-55
2022/10/06 01:43:08;;;;;;;;;;;;;;;;;;4993731;28;19925;-55
2022/10/06 01:45:34;;;;;;;;;;;;;;;;;;4992858;28;20296;-54
2022/10/06 01:47:59;;;;;;;;;;;;;;;;;;4993599;28;19914;-55
2022/10/06 01:50:25;;;;;;;;;;;;;;;;;;4993006;28;19921;-55
2022/10/06 01:52:51;;;;;;;;;;;;;;;;;;4993610;28;20376;-55
2022/10/06 01:55:16;;;;;;;;;;;;;;;;;;4992850;28;19917;-55
2022/10/06 01:57:42;;;;;;;;;;;;;;;;;;4993187;28;20315;-56
2022/10/06 02:00:07;;;;;;;;;;;;;;;;;;4992670;28;19921;-55
2022/10/06 02:02:33;;;;;;;;;;;;;;;;;;4992713;28;19930;-55
2022/10/06 02:04:58;;;;;;;;;;;;;;;;;;4993240;28;20292;-56
2022/10/06 02:07:24;;;;;;;;;;;;;;;;;;4992636;28;19920;-55
2022/10/06 02:09:50;;;;;;;;;;;;;;;;;;4993205;28;19925;-53
2022/10/06 02:12:15;;;;;;;;;;;;;;;;;;4992433;28;20292;-56
2022/10/06 02:14:41;;;;;;;;;;;;;;;;;;4992941;28;19929;-55
2022/10/06 02:17:06;;;;;;;;;;;;;;;;;;4992169;28;20276;-54
2022/10/06 02:19:32;;;;;;;;;;;;;;;;;;4992925;28;19918;-55
2022/10/06 02:21:57;;;;;;;;;;;;;;;;;;4991882;28;19930;-55
2022/10/06 02:24:23;;;;;;;;;;;;;;;;;;4992721;28;19913;-54
2022/10/06 02:26:49;;;;;;;;;;;;;;;;;;4992427;28;19925;-54
2022/10/06 02:29:14;;;;;;;;;;;;;;;;;;4992919;28;19914;-54
2022/10/06 02:31:40;;;;;;;;;;;;;;;;;;4991626;28;19948;-55
2022/10/06 02:34:05;;;;;;;;;;;;;;;;;;4992675;28;19913;-54
2022/10/06 02:36:31;;;;;;;;;;;;;;;;;;4991887;28;19925;-54
2022/10/06 02:38:57;;;;;;;;;;;;;;;;;;5000740;28;20414;-56
2022/10/06 02:41:23;;;;;;;;;;;;;;;;;;4991646;28;19918;-55
2022/10/06 02:43:48;;;;;;;;;;;;;;;;;;4992638;28;19922;-53
2022/10/06 02:46:14;;;;;;;;;;;;;;;;;;4991918;28;19940;-54
2022/10/06 02:48:39;;;;;;;;;;;;;;;;;;4991898;28;19918;-54
2022/10/06 02:51:08;;;;;;;;;;;;;;;;;;4991638;28;20276;-53
2022/10/06 02:53:33;;;;;;;;;;;;;;;;;;4992334;28;19917;-54
2022/10/06 02:55:59;;;;;;;;;;;;;;;;;;4991866;28;20283;-56
2022/10/06 02:58:25;;;;;;;;;;;;;;;;;;4992157;28;19925;-56
2022/10/06 03:00:50;;;;;;;;;;;;;;;;;;4991177;28;19922;-55
2022/10/06 03:03:16;;;;;;;;;;;;;;;;;;4992282;28;19922;-55
2022/10/06 03:05:41;;;;;;;;;;;;;;;;;;4991442;28;20277;-54
2022/10/06 03:08:07;;;;;;;;;;;;;;;;;;4992122;28;19914;-55
2022/10/06 03:10:33;;;;;;;;;;;;;;;;;;4990580;28;19925;-56
2022/10/06 03:12:58;;;;;;;;;;;;;;;;;;4985663;28;20406;-57
2022/10/06 03:15:24;;;;;;;;;;;;;;;;;;4991427;28;19918;-57
2022/10/06 03:17:51;;;;;;;;;;;;;;;;;;4997730;28;19917;-57
2022/10/06 03:20:16;;;;;;;;;;;;;;;;;;4995686;28;19972;-56
2022/10/06 03:22:42;;;;;;;;;;;;;;;;;;4991674;28;19925;-57
2022/10/06 03:25:08;;;;;;;;;;;;;;;;;;4991821;28;20272;-56
2022/10/06 03:27:34;;;;;;;;;;;;;;;;;;4991810;28;19920;-54
2022/10/06 03:29:59;;;;;;;;;;;;;;;;;;4991556;28;19922;-56
2022/10/06 03:32:25;;;;;;;;;;;;;;;;;;4990752;28;20284;-56
2022/10/06 03:34:52;;;;;;;;;;;;;;;;;;4991668;28;19924;-56
2022/10/06 03:37:18;;;;;;;;;;;;;;;;;;4991450;28;19964;-57
2022/10/06 03:39:43;;;;;;;;;;;;;;;;;;4991720;28;19926;-56
2022/10/06 03:42:09;;;;;;;;;;;;;;;;;;4991584;28;19921;-57
2022/10/06 03:44:35;;;;;;;;;;;;;;;;;;4991642;28;19918;-57
2022/10/06 03:47:00;;;;;;;;;;;;;;;;;;4991396;28;19921;-58
2022/10/06 03:49:26;;;;;;;;;;;;;;;;;;4991549;28;19929;-57
2022/10/06 03:51:51;;;;;;;;;;;;;;;;;;4991213;28;20446;-55
2022/10/06 03:54:17;;;;;;;;;;;;;;;;;;4991692;28;19925;-57
2022/10/06 03:56:42;;;;;;;;;;;;;;;;;;4990994;28;20356;-55
2022/10/06 03:59:08;;;;;;;;;;;;;;;;;;4991500;28;20050;-56
2022/10/06 04:01:34;;;;;;;;;;;;;;;;;;4993589;28;20286;-65
2022/10/06 04:04:00;;;;;;;;;;;;;;;;;;4994252;28;19925;-67
2022/10/06 04:06:25;;;;;;;;;;;;;;;;;;4995083;28;19937;-65
2022/10/06 04:08:51;;;;;;;;;;;;;;;;;;5012605;28;19918;-66
2022/10/06 04:11:16;;;;;;;;;;;;;;;;;;5003759;28;19918;-65
2022/10/06 04:13:42;;;;;;;;;;;;;;;;;;4996345;28;19922;-65
2022/10/06 04:16:08;;;;;;;;;;;;;;;;;;4995453;28;19921;-66
2022/10/06 04:18:33;;;;;;;;;;;;;;;;;;5010927;28;19925;-67
2022/10/06 04:20:59;;;;;;;;;;;;;;;;;;4995677;28;19918;-66
2022/10/06 04:23:25;;;;;;;;;;;;;;;;;;4995975;28;20262;-67
2022/10/06 04:25:50;;;;;;;;;;;;;;;;;;4995125;28;19918;-67
2022/10/06 04:28:16;;;;;;;;;;;;;;;;;;4995735;28;19925;-66
